INFORMACIÓN METAR y TAF
METAR FOR LEVD
ADDS - METARS form results

(1135 UTC 17 February 2019)
Data provider http://aviationweather.gov/metar/data/
 
METAR text: LEVD 171130Z 15003KT 070V210 CAVOK 10/M04 Q1021
Conditions at: LEVD (VALLADOLID(MIL/C, ES) observed 1130 UTC 17 February 2019
Temperature: 10.0°C (50°F)
Dewpoint: -4.0°C (25°F) [RH = 37%]
Pressure (altimeter): 30.15 inches Hg (1021.0 mb)
Winds: from the SSE (150 degrees) at 3 MPH (3 knots; 1.5 m/s)
Visibility: 6 or more miles (10+ km)
Ceiling: ceiling and visibility are OK
Clouds: unknown
Weather: no significant weather observed at this time

METAR text: LEVD 171100Z 10003KT 010V180 CAVOK 09/M02 Q1022
Conditions at: LEVD (VALLADOLID(MIL/C, ES) observed 1100 UTC 17 February 2019
Temperature: 9.0°C (48°F)
Dewpoint: -2.0°C (28°F) [RH = 46%]
Pressure (altimeter): 30.18 inches Hg (1022.0 mb)
Winds: from the E (100 degrees) at 3 MPH (3 knots; 1.5 m/s)
Visibility: 6 or more miles (10+ km)
Ceiling: ceiling and visibility are OK
Clouds: unknown
Weather: no significant weather observed at this time

Forecast for: LEVD (VALLADOLID(MIL/C, ES)
Text: TAF LEVD 171100Z 1712/1812 18007KT CAVOK TX15/1715Z TN01/1807Z
Forecast period: 1200 UTC 17 February 2019 to 1200 UTC 18 February 2019
Forecast type: FROM: standard forecast or significant change
Winds: from the S (180 degrees) at 8 MPH (7 knots; 3.6 m/s)
Visibility: 6 or more miles 10+ km)
Ceiling: unknown
Clouds: missing
Weather: no significant weather forecast for this period

 MAPA DE AEROPUERTO

 INFORMACIÓN DE PISTA
Pista 05 Longitud 9843 ft Ancho 197 ft
Elevación 2768 ft Umbral desplazado 0 ft Rumbo de pista 45
Pista 23 Longitud 9843 ft Ancho 197 ft
Elevación 2775 ft Umbral desplazado 0 ft Rumbo de pista 225
Pista 15 Longitud 2976 ft Ancho 197 ft
Elevación 2770 ft Umbral desplazado 0 ft Rumbo de pista 144
Pista 33 Longitud 2976 ft Ancho 197 ft
Elevación 2771 ft Umbral desplazado 0 ft Rumbo de pista 324

 FRECUANCIAS DEL AEROPUERTO
Tipo TWR Nombre TWR Frecuencia 122.2 MHZ

 RADIO AYUDAS DEL AEROPUERTO
Tipo TACAN Nombre Valladolid Frecuencia 108200 KHZ
Tipo NDB Nombre Valladolid Frecuencia 342 KHZ



Powered by Virtual Airlines Manager [v2.6.2]